Time;durP1;ratioP1;P1;durP2;ratioP2;P2;SDS_P1;SDS_P2;PMS_P1;PMS_P2;Temp;Humidity;BMP_temperature;BMP_pressure;BME280_temperature;BME280_humidity;BME280_pressure;Samples;Min_cycle;Max_cycle;Signal;HPM_P1;HPM_P2
2022/03/09 00:01:46;;;;;;;6.60;5.00;;;10.90;99.90;;;;;;5063128;28;20209;-65
2022/03/09 00:04:12;;;;;;;7.40;5.80;;;10.90;99.90;;;;;;5081936;28;20281;-64
2022/03/09 00:06:39;;;;;;;6.37;5.40;;;10.90;99.90;;;;;;5044467;28;20646;-67
2022/03/09 00:09:05;;;;;;;7.63;5.90;;;10.90;99.90;;;;;;5063278;28;20655;-66
2022/03/09 00:11:32;;;;;;;9.07;6.07;;;10.80;99.90;;;;;;5063981;28;20225;-64
2022/03/09 00:13:59;;;;;;;7.30;6.60;;;10.80;99.90;;;;;;5063272;28;20579;-65
2022/03/09 00:16:25;;;;;;;8.63;6.00;;;10.80;99.90;;;;;;5063350;28;20187;-67
2022/03/09 00:18:51;;;;;;;9.10;6.27;;;10.80;99.90;;;;;;5063731;28;20277;-65
2022/03/09 00:21:17;;;;;;;7.33;5.77;;;10.80;99.90;;;;;;5062800;28;20578;-65
2022/03/09 00:23:44;;;;;;;7.10;5.40;;;10.80;99.90;;;;;;5062764;28;20194;-65
2022/03/09 00:26:10;;;;;;;8.23;5.67;;;10.80;99.90;;;;;;5060921;28;20238;-67
2022/03/09 00:28:36;;;;;;;10.67;5.93;;;10.80;99.90;;;;;;5062488;28;20198;-64
2022/03/09 00:31:04;;;;;;;9.83;5.80;;;10.70;99.90;;;;;;5061779;28;20218;-64
2022/03/09 00:33:30;;;;;;;7.73;5.60;;;10.60;99.90;;;;;;5063215;28;20206;-65
2022/03/09 00:35:56;;;;;;;7.37;5.90;;;10.60;99.90;;;;;;5064903;28;20207;-64
2022/03/09 00:38:22;;;;;;;9.97;6.00;;;10.60;99.90;;;;;;5061641;28;20919;-65
2022/03/09 00:40:50;;;;;;;12.77;5.60;;;10.60;99.90;;;;;;5063000;28;20601;-64
2022/03/09 00:43:17;;;;;;;7.37;5.57;;;10.60;99.90;;;;;;5061734;28;20272;-66
2022/03/09 00:45:44;;;;;;;8.13;6.00;;;10.60;99.90;;;;;;5062655;28;20293;-65
2022/03/09 00:48:10;;;;;;;12.10;5.83;;;10.60;99.90;;;;;;5062866;28;20697;-65
2022/03/09 00:50:37;;;;;;;9.27;6.23;;;10.60;99.90;;;;;;5062771;28;20231;-66
2022/03/09 00:53:03;;;;;;;10.63;6.07;;;10.60;99.90;;;;;;5044712;28;20975;-64
2022/03/09 00:55:30;;;;;;;12.20;6.00;;;10.60;99.90;;;;;;5061305;28;20277;-66
2022/03/09 00:57:56;;;;;;;10.83;6.07;;;10.60;99.90;;;;;;5064107;28;20198;-66
2022/03/09 01:00:23;;;;;;;9.10;5.50;;;10.60;99.90;;;;;;5061449;28;20302;-65
2022/03/09 01:02:49;;;;;;;10.70;5.77;;;10.60;99.90;;;;;;5060994;28;20194;-67
2022/03/09 01:05:15;;;;;;;11.20;5.00;;;10.60;99.90;;;;;;5061637;28;20187;-67
2022/03/09 01:07:43;;;;;;;13.50;5.57;;;10.60;99.90;;;;;;5065227;28;20218;-66
2022/03/09 01:10:09;;;;;;;9.83;5.30;;;10.50;99.90;;;;;;5063565;28;20194;-65
2022/03/09 01:12:37;;;;;;;8.73;5.17;;;10.60;99.90;;;;;;5066899;28;20271;-67
2022/03/09 01:15:05;;;;;;;6.50;4.93;;;10.60;99.90;;;;;;5064115;28;20191;-64
2022/03/09 01:17:31;;;;;;;8.37;5.20;;;10.50;99.90;;;;;;5067091;28;20190;-66
2022/03/09 01:19:58;;;;;;;8.03;5.20;;;10.50;99.90;;;;;;5065743;28;20194;-66
2022/03/09 01:22:25;;;;;;;7.17;5.00;;;10.50;99.90;;;;;;5064226;28;20330;-65
2022/03/09 01:24:51;;;;;;;12.57;4.43;;;10.50;99.90;;;;;;5063883;28;20221;-66
2022/03/09 01:27:19;;;;;;;5.60;4.43;;;10.50;99.90;;;;;;5065651;28;20221;-65
2022/03/09 01:29:45;;;;;;;8.70;4.40;;;10.50;99.90;;;;;;5065902;28;20198;-66
2022/03/09 01:32:11;;;;;;;7.70;3.73;;;10.40;99.90;;;;;;5067054;28;20245;-64
2022/03/09 01:34:37;;;;;;;11.10;3.80;;;10.40;99.90;;;;;;5046750;28;20252;-65
2022/03/09 01:37:04;;;;;;;6.83;3.57;;;10.40;99.90;;;;;;5067214;28;20225;-66
2022/03/09 01:39:30;;;;;;;6.30;3.57;;;10.40;99.90;;;;;;5066653;28;20195;-66
2022/03/09 01:41:56;;;;;;;4.40;3.07;;;10.40;99.90;;;;;;5061909;28;20259;-65
2022/03/09 01:44:24;;;;;;;3.67;3.27;;;10.30;99.90;;;;;;5068037;28;20191;-65
2022/03/09 01:46:53;;;;;;;4.87;3.30;;;10.30;99.90;;;;;;5063180;28;20198;-65
2022/03/09 01:49:21;;;;;;;5.73;3.00;;;10.30;99.90;;;;;;5066157;28;20198;-65
2022/03/09 01:51:51;;;;;;;6.93;3.00;;;10.30;99.90;;;;;;5065365;28;20203;-65
2022/03/09 01:54:17;;;;;;;5.63;2.83;;;10.30;99.90;;;;;;5064927;28;20191;-67
2022/03/09 01:56:45;;;;;;;4.17;2.83;;;10.30;99.90;;;;;;5065315;28;20596;-64
2022/03/09 01:59:16;;;;;;;4.50;2.87;;;10.20;99.90;;;;;;5063770;28;20195;-67
2022/03/09 02:01:45;;;;;;;4.00;2.70;;;10.20;99.90;;;;;;5065238;28;20278;-66
2022/03/09 02:04:12;;;;;;;8.03;2.83;;;10.10;99.90;;;;;;5065714;28;20273;-65
2022/03/09 02:06:40;;;;;;;4.13;2.53;;;10.00;99.90;;;;;;5062836;28;20375;-65
2022/03/09 02:11:57;;;;;;;6.30;2.90;;;10.10;99.90;;;;;;5066231;28;20220;-66
2022/03/09 02:14:36;;;;;;;3.27;2.40;;;10.20;99.90;;;;;;5064903;28;20236;-64
2022/03/09 02:17:11;;;;;;;2.90;2.50;;;10.10;99.90;;;;;;5048624;28;20201;-65
2022/03/09 02:19:40;;;;;;;3.73;2.63;;;10.10;99.90;;;;;;5063428;28;20186;-64
2022/03/09 02:22:19;;;;;;;7.53;2.70;;;10.10;99.90;;;;;;5061952;28;20190;-67
2022/03/09 02:24:51;;;;;;;5.23;2.20;;;10.00;99.90;;;;;;5063971;28;20754;-65
2022/03/09 02:27:20;;;;;;;5.60;2.67;;;10.00;99.90;;;;;;5063773;28;20691;-65
2022/03/09 02:29:49;;;;;;;5.30;2.47;;;9.90;99.90;;;;;;5064752;28;20599;-67
2022/03/09 02:32:16;;;;;;;5.50;2.63;;;9.90;99.90;;;;;;5063731;28;20273;-66
2022/03/09 02:34:43;;;;;;;7.77;2.87;;;9.90;99.90;;;;;;5062435;28;20203;-65
2022/03/09 02:37:09;;;;;;;5.17;2.73;;;9.90;99.90;;;;;;5066421;28;20190;-64
2022/03/09 02:39:36;;;;;;;3.90;2.40;;;10.00;99.90;;;;;;5069058;28;20201;-66
2022/03/09 02:42:04;;;;;;;3.80;2.67;;;10.00;99.90;;;;;;5062796;28;20198;-66
2022/03/09 02:44:31;;;;;;;5.83;2.27;;;10.00;99.90;;;;;;5044801;28;20191;-65
2022/03/09 02:46:57;;;;;;;4.90;2.53;;;10.00;99.90;;;;;;5063921;28;20249;-67
2022/03/09 02:49:23;;;;;;;2.70;2.30;;;10.00;99.90;;;;;;5065358;28;20343;-66
2022/03/09 02:51:50;;;;;;;4.43;2.30;;;10.00;99.90;;;;;;5079601;28;20214;-67
2022/03/09 02:54:17;;;;;;;5.40;2.60;;;10.00;99.90;;;;;;5064590;28;20718;-65
2022/03/09 02:56:43;;;;;;;4.57;2.40;;;10.00;99.90;;;;;;5080594;28;20219;-65
2022/03/09 02:59:09;;;;;;;5.07;2.70;;;10.00;99.90;;;;;;5064292;28;20217;-65
2022/03/09 03:01:37;;;;;;;7.97;2.57;;;10.00;99.90;;;;;;5063051;28;20199;-67
2022/03/09 03:04:04;;;;;;;3.63;2.53;;;10.00;99.90;;;;;;5064829;28;20195;-66
2022/03/09 03:06:30;;;;;;;6.23;2.47;;;10.00;99.90;;;;;;5063469;28;20225;-67
2022/03/09 03:08:57;;;;;;;5.43;2.50;;;10.00;99.90;;;;;;5080231;28;20187;-64
2022/03/09 03:11:23;;;;;;;6.43;2.47;;;10.00;99.90;;;;;;5066447;28;20817;-67
2022/03/09 03:13:49;;;;;;;5.33;2.60;;;10.00;99.90;;;;;;5062100;28;20240;-66
2022/03/09 03:16:16;;;;;;;5.10;2.37;;;10.00;99.90;;;;;;5064694;28;20214;-67
2022/03/09 03:18:43;;;;;;;7.77;2.50;;;10.00;99.90;;;;;;5063430;28;20233;-65
2022/03/09 03:21:09;;;;;;;7.77;2.60;;;10.00;99.90;;;;;;5063712;28;20203;-65
2022/03/09 03:23:36;;;;;;;5.60;2.80;;;10.00;99.90;;;;;;5064843;28;20244;-66
2022/03/09 03:26:05;;;;;;;7.47;2.93;;;10.10;99.90;;;;;;5062380;28;20226;-65
2022/03/09 03:28:32;;;;;;;6.87;2.60;;;10.10;99.90;;;;;;5078163;28;20190;-65
2022/03/09 03:30:59;;;;;;;7.60;2.80;;;10.10;99.90;;;;;;5064001;28;20686;-65
2022/03/09 03:33:25;;;;;;;7.33;2.60;;;10.10;99.90;;;;;;5062327;28;20194;-66
2022/03/09 03:35:52;;;;;;;5.37;2.60;;;10.10;99.90;;;;;;5064187;28;20670;-66
2022/03/09 03:38:19;;;;;;;7.43;2.57;;;10.10;99.90;;;;;;5079521;28;20230;-65
2022/03/09 03:40:46;;;;;;;8.00;2.97;;;10.10;99.90;;;;;;5064501;28;20186;-65
2022/03/09 03:43:13;;;;;;;6.53;2.43;;;10.10;99.90;;;;;;5063522;28;20626;-67
2022/03/09 03:45:39;;;;;;;3.73;2.07;;;10.10;99.90;;;;;;5060770;28;20736;-65
2022/03/09 03:48:07;;;;;;;7.03;2.40;;;10.10;99.90;;;;;;5062973;28;20276;-65
2022/03/09 03:50:34;;;;;;;5.70;2.70;;;10.10;99.90;;;;;;5062873;28;20669;-66
2022/03/09 03:53:01;;;;;;;4.47;2.60;;;10.00;99.90;;;;;;5077835;28;20233;-66
2022/03/09 03:55:27;;;;;;;5.20;2.50;;;10.00;99.90;;;;;;5062629;28;20191;-66
2022/03/09 03:57:54;;;;;;;8.50;3.00;;;10.00;99.90;;;;;;5057981;28;20186;-67
2022/03/09 04:00:20;;;;;;;6.33;2.57;;;10.00;99.90;;;;;;5059770;28;20248;-66
2022/03/09 04:02:46;;;;;;;5.13;2.80;;;10.00;99.90;;;;;;5060129;28;20302;-65
2022/03/09 04:05:12;;;;;;;8.03;2.90;;;10.00;99.90;;;;;;5076919;28;20191;-65
2022/03/09 04:07:38;;;;;;;6.27;2.60;;;10.10;99.90;;;;;;5062189;28;20195;-67
2022/03/09 04:10:05;;;;;;;9.63;2.27;;;10.00;99.90;;;;;;5059920;28;20206;-67
2022/03/09 04:12:31;;;;;;;6.83;2.30;;;10.00;99.90;;;;;;5064298;28;20214;-65
2022/03/09 04:14:58;;;;;;;5.80;2.50;;;10.00;99.90;;;;;;5061212;28;20210;-65
2022/03/09 04:17:24;;;;;;;4.47;2.33;;;10.00;99.90;;;;;;5059802;28;20555;-66
2022/03/09 04:19:51;;;;;;;4.20;2.20;;;10.00;99.90;;;;;;5060555;28;20205;-65
2022/03/09 04:22:17;;;;;;;4.83;2.70;;;10.00;99.90;;;;;;5062353;28;20190;-66
2022/03/09 04:24:43;;;;;;;6.50;2.90;;;10.00;99.90;;;;;;5060964;28;20524;-67
2022/03/09 04:27:10;;;;;;;8.23;2.67;;;10.00;99.90;;;;;;5065312;28;20206;-65
2022/03/09 04:29:36;;;;;;;5.87;2.73;;;10.00;99.90;;;;;;5077625;28;20214;-65
2022/03/09 04:32:02;;;;;;;8.83;2.63;;;10.00;99.90;;;;;;5062335;28;20221;-65
2022/03/09 04:34:29;;;;;;;8.20;2.50;;;10.10;99.90;;;;;;5062225;28;20213;-65
2022/03/09 04:36:56;;;;;;;4.17;2.40;;;10.10;99.90;;;;;;5062299;28;20194;-65
2022/03/09 04:39:22;;;;;;;4.63;2.30;;;10.10;99.90;;;;;;5043549;28;20194;-65
2022/03/09 04:41:49;;;;;;;3.73;2.63;;;10.10;99.90;;;;;;5060580;28;20202;-65
2022/03/09 04:44:15;;;;;;;9.13;2.80;;;10.10;99.90;;;;;;5065069;28;20694;-66
2022/03/09 04:46:42;;;;;;;10.23;3.13;;;10.10;99.90;;;;;;5061420;28;20222;-65
2022/03/09 04:49:08;;;;;;;6.57;2.63;;;10.10;99.90;;;;;;5064195;28;20198;-65
2022/03/09 04:51:36;;;;;;;7.67;2.70;;;10.20;99.90;;;;;;5061759;28;20567;-66
2022/03/09 04:54:03;;;;;;;4.60;2.50;;;10.20;99.90;;;;;;5078455;28;20210;-65
2022/03/09 04:56:29;;;;;;;4.63;2.60;;;10.20;99.90;;;;;;5062813;28;20195;-67
2022/03/09 04:58:55;;;;;;;7.53;2.67;;;10.30;99.90;;;;;;5061916;28;20388;-65
2022/03/09 05:01:22;;;;;;;4.23;2.43;;;10.20;99.90;;;;;;5061631;28;20236;-67
2022/03/09 05:03:48;;;;;;;3.60;2.30;;;10.30;99.90;;;;;;5064187;28;20232;-66
2022/03/09 05:06:16;;;;;;;5.87;2.70;;;10.30;99.90;;;;;;5062798;28;20198;-65
2022/03/09 05:08:42;;;;;;;3.20;2.50;;;10.30;99.90;;;;;;5063374;28;20347;-66
2022/03/09 05:11:08;;;;;;;3.50;2.50;;;10.30;99.90;;;;;;5062978;28;20769;-66
2022/03/09 05:13:34;;;;;;;5.97;2.40;;;10.30;99.90;;;;;;5061194;28;20199;-65
2022/03/09 05:16:01;;;;;;;4.60;2.33;;;10.40;99.90;;;;;;5061788;28;20952;-66
2022/03/09 05:18:27;;;;;;;6.17;2.30;;;10.40;99.90;;;;;;5045632;28;20198;-66
2022/03/09 05:20:53;;;;;;;4.60;2.40;;;10.40;99.90;;;;;;5060758;28;20190;-66
2022/03/09 05:23:20;;;;;;;6.87;2.20;;;10.40;99.90;;;;;;5077489;28;20204;-66
2022/03/09 05:25:46;;;;;;;3.33;2.40;;;10.40;99.90;;;;;;5060546;28;20214;-65
2022/03/09 05:28:12;;;;;;;4.27;2.03;;;10.40;99.90;;;;;;5061439;28;21019;-65
2022/03/09 05:30:38;;;;;;;5.73;2.33;;;10.30;99.90;;;;;;5061319;28;20229;-67
2022/03/09 05:33:08;;;;;;;4.23;2.43;;;10.30;99.90;;;;;;5063075;28;20223;-66
2022/03/09 05:35:37;;;;;;;3.27;2.10;;;10.30;99.90;;;;;;5061856;28;20199;-66
2022/03/09 05:38:03;;;;;;;7.63;2.33;;;10.40;99.90;;;;;;5077666;28;20540;-66
2022/03/09 05:40:30;;;;;;;8.97;2.50;;;10.40;99.90;;;;;;5061680;28;20191;-65
2022/03/09 05:43:00;;;;;;;3.57;2.30;;;10.50;99.90;;;;;;5062614;28;20193;-67
2022/03/09 05:45:26;;;;;;;5.43;2.00;;;10.50;99.90;;;;;;5080434;28;20183;-66
2022/03/09 05:47:53;;;;;;;12.30;2.97;;;10.50;99.90;;;;;;5060650;28;20273;-67
2022/03/09 05:50:21;;;;;;;6.07;2.33;;;10.60;99.90;;;;;;5063397;28;20206;-66
2022/03/09 05:52:47;;;;;;;5.50;2.57;;;10.50;99.90;;;;;;5063175;28;20321;-66
2022/03/09 05:55:14;;;;;;;6.63;2.60;;;10.60;99.90;;;;;;5062319;28;20214;-66
2022/03/09 05:57:41;;;;;;;4.00;2.73;;;10.60;99.90;;;;;;5064148;28;20286;-65
2022/03/09 06:00:08;;;;;;;7.40;2.37;;;10.70;99.90;;;;;;5065444;28;20191;-67
2022/03/09 06:02:35;;;;;;;7.43;2.67;;;10.70;99.90;;;;;;5081669;28;20985;-66
2022/03/09 06:05:01;;;;;;;5.10;2.10;;;10.70;99.90;;;;;;5065842;28;20194;-66
2022/03/09 06:07:27;;;;;;;6.47;2.30;;;10.70;99.90;;;;;;5064442;28;20293;-67
2022/03/09 06:09:53;;;;;;;5.40;2.60;;;10.70;99.90;;;;;;5065560;28;20187;-66
2022/03/09 06:12:20;;;;;;;3.23;2.00;;;10.80;99.90;;;;;;5065863;28;20218;-66
2022/03/09 06:14:46;;;;;;;4.43;2.30;;;10.80;99.90;;;;;;5064123;28;20599;-66
2022/03/09 06:17:12;;;;;;;3.77;2.17;;;10.90;99.90;;;;;;5050593;28;20578;-65
2022/03/09 06:19:39;;;;;;;8.90;2.50;;;10.90;99.90;;;;;;5079744;28;20236;-65
2022/03/09 06:22:05;;;;;;;4.80;2.17;;;11.00;99.90;;;;;;5067054;28;20281;-65
2022/03/09 06:24:31;;;;;;;6.27;2.53;;;11.10;99.90;;;;;;5064885;28;20693;-65
2022/03/09 06:26:58;;;;;;;3.73;2.07;;;11.20;99.90;;;;;;5046795;28;20194;-65
2022/03/09 06:29:26;;;;;;;5.43;1.90;;;11.20;99.90;;;;;;5064341;28;20225;-66
2022/03/09 06:31:52;;;;;;;6.03;2.30;;;11.30;99.90;;;;;;5080567;28;20215;-66
2022/03/09 06:34:19;;;;;;;4.33;2.13;;;11.20;99.90;;;;;;5064996;28;20280;-67
2022/03/09 06:36:45;;;;;;;5.57;2.40;;;11.30;99.90;;;;;;5046241;28;20215;-66
2022/03/09 06:39:13;;;;;;;5.93;2.17;;;11.30;99.90;;;;;;5065992;28;20191;-66
2022/03/09 06:41:45;;;;;;;4.77;2.33;;;11.20;99.90;;;;;;5065036;28;20803;-67
2022/03/09 06:44:14;;;;;;;4.93;2.13;;;11.20;99.90;;;;;;5063420;28;20194;-65
2022/03/09 06:46:41;;;;;;;6.23;1.93;;;11.20;99.90;;;;;;5064300;28;20256;-67
2022/03/09 06:49:08;;;;;;;4.17;1.93;;;11.10;99.90;;;;;;5067060;28;20646;-65
2022/03/09 06:51:34;;;;;;;5.70;1.73;;;11.10;99.90;;;;;;5080386;28;20924;-65
2022/03/09 06:54:01;;;;;;;2.80;1.97;;;11.00;99.90;;;;;;5066410;28;20268;-65
2022/03/09 06:56:27;;;;;;;7.13;2.03;;;11.00;99.90;;;;;;5064674;28;20187;-66
2022/03/09 06:58:57;;;;;;;4.87;2.00;;;11.00;99.90;;;;;;5064965;28;20228;-67
2022/03/09 07:01:23;;;;;;;5.53;2.13;;;11.10;99.90;;;;;;5079974;28;21135;-67
2022/03/09 07:03:50;;;;;;;5.90;2.00;;;11.10;99.90;;;;;;5064721;28;20194;-66
2022/03/09 07:06:16;;;;;;;6.30;2.30;;;11.20;99.90;;;;;;5064763;28;20210;-65
2022/03/09 07:08:42;;;;;;;4.37;2.10;;;11.20;99.90;;;;;;5064766;28;20198;-67
2022/03/09 07:11:09;;;;;;;7.43;2.20;;;11.20;99.90;;;;;;5064406;28;20236;-65
2022/03/09 07:13:35;;;;;;;4.90;2.30;;;11.30;99.90;;;;;;5064406;28;20705;-67
2022/03/09 07:16:01;;;;;;;4.27;2.17;;;11.30;99.90;;;;;;5064000;28;20186;-67
2022/03/09 07:18:27;;;;;;;4.43;2.00;;;11.30;99.90;;;;;;5065864;28;20651;-66
2022/03/09 07:20:53;;;;;;;6.80;2.50;;;11.40;99.90;;;;;;5047755;28;20293;-66
2022/03/09 07:23:20;;;;;;;6.90;2.20;;;11.50;99.90;;;;;;5061877;28;20244;-64
2022/03/09 07:25:46;;;;;;;7.47;2.67;;;11.50;99.90;;;;;;5062622;28;20220;-65
2022/03/09 07:28:13;;;;;;;6.83;2.30;;;11.50;99.90;;;;;;5064801;28;20293;-65
2022/03/09 07:30:39;;;;;;;9.50;3.03;;;11.60;99.90;;;;;;5062762;28;20190;-66
2022/03/09 07:33:05;;;;;;;5.53;2.50;;;11.70;99.90;;;;;;5064531;28;20222;-66
2022/03/09 07:35:31;;;;;;;7.40;2.67;;;11.80;99.90;;;;;;5045773;28;20733;-67
2022/03/09 07:37:58;;;;;;;5.97;2.23;;;11.90;99.90;;;;;;5062337;28;20201;-66
2022/03/09 07:40:24;;;;;;;5.43;2.33;;;12.00;99.90;;;;;;5064746;28;20266;-65
2022/03/09 07:42:50;;;;;;;7.80;2.60;;;11.90;99.90;;;;;;5064410;28;20596;-64
2022/03/09 07:45:17;;;;;;;5.07;2.30;;;11.90;99.90;;;;;;5045242;28;20624;-66
2022/03/09 07:47:43;;;;;;;5.67;2.63;;;11.90;99.90;;;;;;5063365;28;20209;-65
2022/03/09 07:50:09;;;;;;;8.47;2.80;;;11.90;99.90;;;;;;5066399;28;20269;-65
2022/03/09 07:52:36;;;;;;;6.30;3.27;;;11.90;99.90;;;;;;5063453;28;20219;-65
2022/03/09 07:55:06;;;;;;;7.73;2.83;;;11.90;99.90;;;;;;5060612;28;20186;-65
2022/03/09 07:57:33;;;;;;;5.90;2.83;;;11.90;99.90;;;;;;5075443;28;20290;-66
2022/03/09 08:00:00;;;;;;;9.03;2.90;;;11.90;99.90;;;;;;5063120;28;20265;-65
2022/03/09 08:02:27;;;;;;;10.33;3.93;;;12.00;99.90;;;;;;5064447;28;20215;-67
2022/03/09 08:04:53;;;;;;;7.83;3.53;;;12.10;99.90;;;;;;5060964;28;20252;-65
2022/03/09 08:07:20;;;;;;;9.03;2.60;;;12.20;99.90;;;;;;5063667;28;20190;-65
2022/03/09 08:09:46;;;;;;;7.07;2.30;;;12.20;99.90;;;;;;5068796;28;20321;-65
2022/03/09 08:12:12;;;;;;;3.27;2.27;;;12.10;99.90;;;;;;5062829;28;20214;-65
2022/03/09 08:14:39;;;;;;;7.37;2.07;;;12.10;99.90;;;;;;5065849;28;20190;-67
2022/03/09 08:17:05;;;;;;;5.47;2.10;;;12.10;99.90;;;;;;5061731;28;20670;-66
2022/03/09 08:19:32;;;;;;;7.27;2.10;;;12.10;99.90;;;;;;5062397;28;20209;-67
2022/03/09 08:21:58;;;;;;;5.40;1.93;;;12.20;99.90;;;;;;5067490;28;20256;-65
2022/03/09 08:24:25;;;;;;;3.30;1.60;;;12.20;99.90;;;;;;5062844;28;20289;-65
2022/03/09 08:26:51;;;;;;;3.40;1.20;;;12.20;99.90;;;;;;5088191;28;20198;-67
2022/03/09 08:29:17;;;;;;;4.77;1.50;;;12.30;99.90;;;;;;5050805;28;20244;-66
2022/03/09 08:31:44;;;;;;;5.50;1.70;;;12.30;99.90;;;;;;5079864;28;20246;-66
2022/03/09 08:34:10;;;;;;;3.73;1.30;;;12.40;99.90;;;;;;5070006;28;20260;-65
2022/03/09 08:36:37;;;;;;;6.20;1.47;;;12.40;99.90;;;;;;5071918;28;20191;-66
2022/03/09 08:39:03;;;;;;;4.67;1.37;;;12.40;99.90;;;;;;5070530;28;20247;-67
2022/03/09 08:41:30;;;;;;;6.77;1.60;;;12.50;99.90;;;;;;5070562;28;20205;-65
2022/03/09 08:43:57;;;;;;;4.87;1.40;;;12.60;99.90;;;;;;5070014;28;20208;-66
2022/03/09 08:46:23;;;;;;;6.27;1.20;;;12.80;99.90;;;;;;5072195;28;20182;-65
2022/03/09 08:48:50;;;;;;;4.03;1.30;;;12.90;99.90;;;;;;5063569;28;20485;-66
2022/03/09 08:51:20;;;;;;;5.40;1.60;;;12.90;99.90;;;;;;5066097;28;20186;-66
2022/03/09 08:53:47;;;;;;;6.90;1.27;;;12.90;99.90;;;;;;5068216;28;20187;-65
2022/03/09 08:56:13;;;;;;;3.03;1.20;;;12.80;99.90;;;;;;5086425;28;20194;-65
2022/03/09 08:58:40;;;;;;;6.77;1.17;;;12.70;99.90;;;;;;5068606;28;20221;-66
2022/03/09 09:01:07;;;;;;;4.90;1.57;;;12.60;99.90;;;;;;5067836;28;20195;-64
2022/03/09 09:03:33;;;;;;;7.63;1.50;;;12.60;99.90;;;;;;5070841;28;20680;-65
2022/03/09 09:06:01;;;;;;;8.27;1.40;;;12.60;99.90;;;;;;5045894;28;20187;-66
2022/03/09 09:08:28;;;;;;;3.30;1.30;;;12.50;99.90;;;;;;5064605;28;20295;-65
2022/03/09 09:10:54;;;;;;;3.50;1.40;;;12.50;99.90;;;;;;5065056;28;20266;-67
2022/03/09 09:13:21;;;;;;;5.00;1.27;;;12.60;99.90;;;;;;5078000;28;20579;-65
2022/03/09 09:15:49;;;;;;;5.13;1.20;;;12.60;99.90;;;;;;5054164;28;20491;-65
2022/03/09 09:18:15;;;;;;;3.67;1.40;;;12.70;99.90;;;;;;5068046;28;20217;-66
2022/03/09 09:20:42;;;;;;;6.60;1.40;;;12.70;99.90;;;;;;5064881;28;20190;-67
2022/03/09 09:23:08;;;;;;;5.97;1.67;;;12.70;99.90;;;;;;5064627;28;20225;-67
2022/03/09 09:25:35;;;;;;;2.60;1.30;;;12.70;99.90;;;;;;5063409;28;20217;-65
2022/03/09 09:28:01;;;;;;;7.70;1.77;;;12.80;99.90;;;;;;5061494;28;21055;-65
2022/03/09 09:30:30;;;;;;;8.33;1.90;;;12.80;99.90;;;;;;5069451;28;20218;-65
2022/03/09 09:32:57;;;;;;;6.23;1.50;;;12.80;99.90;;;;;;5062649;28;20260;-66
2022/03/09 09:35:23;;;;;;;4.00;1.37;;;12.70;99.90;;;;;;5071191;28;20206;-66
2022/03/09 09:37:53;;;;;;;9.07;1.80;;;12.60;99.90;;;;;;5048986;28;20587;-65
2022/03/09 09:40:19;;;;;;;6.53;1.90;;;12.60;99.90;;;;;;5073956;28;20190;-66
2022/03/09 09:42:46;;;;;;;5.73;1.50;;;12.60;99.90;;;;;;5075047;28;20197;-65
2022/03/09 09:45:13;;;;;;;3.60;1.50;;;12.70;99.90;;;;;;5062843;28;20198;-66
2022/03/09 09:47:39;;;;;;;7.47;1.67;;;12.70;99.90;;;;;;5070765;28;20225;-65
2022/03/09 09:50:07;;;;;;;12.03;1.90;;;12.60;99.90;;;;;;5083770;28;20205;-65
2022/03/09 09:52:36;;;;;;;9.10;1.90;;;12.60;99.90;;;;;;5084536;28;20226;-64
2022/03/09 09:55:04;;;;;;;8.70;1.80;;;12.60;99.90;;;;;;5070164;28;20262;-65
2022/03/09 09:57:31;;;;;;;3.53;1.70;;;12.40;99.90;;;;;;5067976;28;20190;-65
2022/03/09 09:59:59;;;;;;;4.30;1.83;;;12.40;99.90;;;;;;5066058;28;21842;-65
2022/03/09 10:02:26;;;;;;;5.03;1.77;;;12.90;99.90;;;;;;5063041;28;20186;-64
2022/03/09 10:04:52;;;;;;;5.70;1.60;;;13.50;99.90;;;;;;5068756;28;22629;-65
2022/03/09 10:07:19;;;;;;;7.47;1.70;;;14.20;99.90;;;;;;5065785;28;20222;-64
2022/03/09 10:09:46;;;;;;;5.27;1.60;;;15.00;99.90;;;;;;5065614;28;20686;-67
2022/03/09 10:12:13;;;;;;;8.40;2.00;;;14.80;99.90;;;;;;5049362;28;20226;-66
2022/03/09 10:14:50;;;;;;;4.10;1.80;;;14.60;99.90;;;;;;5080234;28;20191;-67
2022/03/09 10:17:34;;;;;;;6.10;1.70;;;14.20;99.90;;;;;;5072463;28;20225;-65
2022/03/09 10:20:12;;;;;;;11.10;3.03;;;13.80;99.90;;;;;;5064971;28;20186;-65
2022/03/09 10:22:41;;;;;;;8.83;4.47;;;13.80;99.90;;;;;;5053719;28;20288;-67
2022/03/09 10:25:11;;;;;;;4.77;2.10;;;14.70;99.90;;;;;;5061673;28;20214;-66
2022/03/09 10:27:48;;;;;;;3.93;2.07;;;14.90;99.90;;;;;;5065957;28;20194;-65
2022/03/09 10:30:29;;;;;;;4.53;2.13;;;14.60;99.90;;;;;;5061559;28;20197;-66
2022/03/09 10:32:59;;;;;;;3.63;2.23;;;14.00;99.90;;;;;;5070590;28;20233;-66
2022/03/09 10:35:31;;;;;;;7.50;2.40;;;13.50;99.90;;;;;;5068560;28;20244;-65
2022/03/09 10:38:00;;;;;;;7.30;2.30;;;13.30;99.90;;;;;;5082310;28;20224;-65
2022/03/09 10:40:30;;;;;;;6.77;2.40;;;13.20;99.90;;;;;;5068901;28;20282;-65
2022/03/09 10:43:20;;;;;;;8.23;2.17;;;13.20;99.90;;;;;;5067140;28;20278;-65
2022/03/09 10:46:13;;;;;;;5.80;2.43;;;13.10;99.90;;;;;;5069018;28;20220;-65
2022/03/09 10:49:00;;;;;;;5.23;2.60;;;13.00;99.90;;;;;;5065008;28;20195;-65
2022/03/09 10:51:39;;;;;;;6.43;2.60;;;13.00;99.90;;;;;;5077074;28;20315;-64
2022/03/09 10:54:23;;;;;;;7.93;2.30;;;13.00;99.90;;;;;;5063558;28;20190;-65
2022/03/09 10:57:03;;;;;;;12.10;2.43;;;13.00;99.90;;;;;;5063874;28;20591;-64
2022/03/09 10:59:41;;;;;;;5.63;2.40;;;13.00;99.90;;;;;;5066213;28;20278;-64
2022/03/09 11:02:10;;;;;;;6.33;2.13;;;13.10;99.90;;;;;;5081750;28;20714;-63
2022/03/09 11:04:38;;;;;;;4.63;2.40;;;12.90;99.90;;;;;;5066374;28;20183;-64
2022/03/09 11:07:06;;;;;;;3.40;2.10;;;12.80;99.90;;;;;;5085177;28;20218;-63
2022/03/09 11:09:36;;;;;;;3.83;1.90;;;12.70;99.90;;;;;;5067390;28;20285;-65
2022/03/09 11:12:03;;;;;;;5.67;2.37;;;12.70;99.90;;;;;;5066712;28;20237;-64
2022/03/09 11:14:30;;;;;;;8.40;2.70;;;12.70;99.90;;;;;;5066457;28;20664;-63
2022/03/09 11:16:59;;;;;;;5.97;2.40;;;12.70;99.90;;;;;;5057840;28;20184;-64
2022/03/09 11:19:25;;;;;;;6.80;2.53;;;12.70;99.90;;;;;;5067164;28;20743;-63
2022/03/09 11:21:52;;;;;;;8.60;2.50;;;12.70;99.90;;;;;;5069184;28;20195;-63
2022/03/09 11:24:20;;;;;;;5.90;2.40;;;12.70;99.90;;;;;;5055251;28;20212;-63
2022/03/09 11:26:54;;;;;;;4.87;2.40;;;12.80;99.90;;;;;;5066769;28;20195;-64
2022/03/09 11:29:40;;;;;;;12.00;2.63;;;12.90;99.90;;;;;;5066512;28;20182;-64
2022/03/09 11:32:14;;;;;;;4.60;2.23;;;12.90;99.90;;;;;;5067117;28;21095;-65
2022/03/09 11:34:48;;;;;;;8.07;2.27;;;12.90;99.90;;;;;;5080142;28;20230;-64
2022/03/09 11:37:36;;;;;;;7.30;2.27;;;12.90;99.90;;;;;;5086462;28;20204;-64
2022/03/09 11:40:08;;;;;;;5.87;2.20;;;12.90;99.90;;;;;;5065341;28;20187;-66
2022/03/09 11:42:45;;;;;;;7.83;2.37;;;12.90;99.90;;;;;;5049705;28;20286;-64
2022/03/09 11:45:20;;;;;;;5.13;2.30;;;12.90;99.90;;;;;;5063270;28;20190;-64
2022/03/09 11:48:18;;;;;;;4.70;2.00;;;13.00;99.90;;;;;;5071238;28;21342;-64
2022/03/09 11:50:47;;;;;;;6.40;2.17;;;13.00;99.90;;;;;;5065049;28;20581;-66
2022/03/09 11:53:34;;;;;;;7.33;2.03;;;13.00;99.90;;;;;;5068173;28;20241;-65
2022/03/09 11:56:30;;;;;;;5.00;1.50;;;13.10;99.90;;;;;;5063142;28;20190;-66
2022/03/09 11:59:19;;;;;;;3.77;1.30;;;13.10;99.90;;;;;;5042684;28;20186;-66
2022/03/09 12:01:57;;;;;;;3.73;1.67;;;13.10;99.90;;;;;;5061806;28;20202;-63
2022/03/09 12:04:42;;;;;;;4.53;1.90;;;13.00;99.90;;;;;;5067731;28;20175;-63
2022/03/09 12:07:10;;;;;;;4.27;1.60;;;13.00;99.90;;;;;;5068465;28;20611;-66
2022/03/09 12:10:12;;;;;;;5.67;1.63;;;13.00;99.90;;;;;;5068777;28;20195;-65
2022/03/09 12:13:09;;;;;;;2.13;1.40;;;12.90;99.90;;;;;;5048456;28;20217;-63
2022/03/09 12:16:00;;;;;;;2.17;1.40;;;12.80;99.90;;;;;;5068230;28;20187;-65
2022/03/09 12:19:04;;;;;;;3.10;1.37;;;12.90;99.90;;;;;;5065935;28;20203;-66
2022/03/09 12:21:33;;;;;;;4.90;2.00;;;12.90;99.90;;;;;;5038397;28;20210;-64
2022/03/09 12:24:05;;;;;;;2.87;1.50;;;12.90;99.90;;;;;;5060971;28;20270;-65
2022/03/09 12:26:57;;;;;;;6.73;1.43;;;12.80;99.90;;;;;;5061317;28;20207;-64
2022/03/09 12:29:34;;;;;;;2.77;1.40;;;12.80;99.90;;;;;;5057352;28;20281;-64
2022/03/09 12:32:12;;;;;;;4.33;1.63;;;12.80;99.90;;;;;;5059578;28;20214;-65
2022/03/09 12:34:45;;;;;;;3.67;1.60;;;12.90;99.90;;;;;;5061088;28;20206;-64
2022/03/09 12:37:23;;;;;;;2.60;1.43;;;12.90;99.90;;;;;;5061075;28;20206;-64
2022/03/09 12:39:54;;;;;;;8.80;1.70;;;12.90;99.90;;;;;;5064637;28;20187;-65
2022/03/09 12:42:21;;;;;;;5.33;1.63;;;12.90;99.90;;;;;;5064969;28;20311;-64
2022/03/09 12:44:49;;;;;;;6.63;1.77;;;12.90;99.90;;;;;;5076997;28;21090;-66
2022/03/09 12:47:19;;;;;;;6.00;1.60;;;13.00;99.90;;;;;;5056463;28;20692;-64
2022/03/09 12:49:51;;;;;;;3.73;1.43;;;13.00;99.90;;;;;;5065818;28;20193;-64
2022/03/09 12:52:21;;;;;;;9.80;1.80;;;12.90;99.90;;;;;;5062473;28;20561;-66
2022/03/09 12:54:55;;;;;;;8.30;1.97;;;12.90;99.90;;;;;;5050249;28;20187;-64
2022/03/09 12:57:29;;;;;;;8.30;2.00;;;12.90;99.90;;;;;;5046043;28;20186;-66